NCAR-RAP Real-Time Weather Data

Output produced by METARs form (10 April 2020  06:35 UTC)
found at http://weather.rap.ucar.edu/surface/
 
KGRR 100553Z AUTO 32013G21KT 9SM FEW020 BKN075 OVC085 01/M02 A2979 RMK AO2 PK WND 31030/0533 SNB32E49 CIG 046 RWY 8R SLP093 P0000 60000 T00111022 10039 20006 53009